createdAt,value
2023-05-01T00:01:23.449Z,16.10
2023-05-01T00:03:50.042Z,16.10
2023-05-01T00:06:16.704Z,16.10
2023-05-01T00:08:48.718Z,16.10
2023-05-01T00:11:15.221Z,16.10
2023-05-01T00:13:41.705Z,16.10
2023-05-01T00:16:08.216Z,16.10
2023-05-01T00:18:34.674Z,16.10
2023-05-01T00:21:01.136Z,16.10
2023-05-01T00:23:27.594Z,16.10
2023-05-01T00:25:54.061Z,16.10
2023-05-01T00:28:20.506Z,16.10
2023-05-01T00:30:46.980Z,16.10
2023-05-01T00:33:13.592Z,16.10
2023-05-01T00:35:40.087Z,16.10
2023-05-01T00:38:06.606Z,16.10
2023-05-01T00:40:33.088Z,16.10
2023-05-01T00:42:59.552Z,16.00
2023-05-01T00:45:26.017Z,16.10
2023-05-01T00:47:52.526Z,16.00
2023-05-01T00:50:19.024Z,16.00
2023-05-01T00:52:45.500Z,16.00
2023-05-01T00:55:11.979Z,16.00
2023-05-01T00:57:38.458Z,16.00
2023-05-01T01:00:04.924Z,16.00
2023-05-01T01:02:31.389Z,16.00
2023-05-01T01:04:58.173Z,16.00
2023-05-01T01:07:24.810Z,16.00
2023-05-01T01:09:51.305Z,16.00
2023-05-01T01:12:17.781Z,16.00
2023-05-01T01:14:44.250Z,16.00
2023-05-01T01:17:10.825Z,16.00
2023-05-01T01:19:37.327Z,16.00
2023-05-01T01:22:03.826Z,16.00
2023-05-01T01:24:30.302Z,16.00
2023-05-01T01:26:56.782Z,16.00
2023-05-01T01:29:23.260Z,16.00
2023-05-01T01:31:49.721Z,16.00
2023-05-01T01:34:16.210Z,16.00
2023-05-01T01:36:42.655Z,16.00
2023-05-01T01:39:12.639Z,16.00
2023-05-01T01:41:39.118Z,16.00
2023-05-01T01:44:05.596Z,16.00
2023-05-01T01:46:32.125Z,16.00
2023-05-01T01:48:58.670Z,16.00
2023-05-01T01:51:25.130Z,16.00
2023-05-01T01:53:51.608Z,16.00
2023-05-01T01:56:18.087Z,16.00
2023-05-01T01:58:44.563Z,16.00
2023-05-01T02:01:11.042Z,16.00
2023-05-01T02:03:37.779Z,16.00
2023-05-01T02:06:04.473Z,16.00
2023-05-01T02:08:31.062Z,16.00
2023-05-01T02:10:58.821Z,16.00
2023-05-01T02:13:26.223Z,16.00
2023-05-01T02:15:52.777Z,15.90
2023-05-01T02:18:19.283Z,16.00
2023-05-01T02:20:45.795Z,16.00
2023-05-01T02:23:12.312Z,16.00
2023-05-01T02:25:38.797Z,15.90
2023-05-01T02:28:05.268Z,15.90
2023-05-01T02:30:31.742Z,15.90
2023-05-01T02:32:58.285Z,15.90
2023-05-01T02:35:25.886Z,15.90
2023-05-01T02:37:52.375Z,15.90
2023-05-01T02:40:18.851Z,15.90
2023-05-01T02:42:45.339Z,15.90
2023-05-01T02:45:11.823Z,15.90
2023-05-01T02:47:38.377Z,15.90
2023-05-01T02:50:04.886Z,15.90
2023-05-01T02:52:31.341Z,15.90
2023-05-01T02:54:57.810Z,15.90
2023-05-01T02:57:24.289Z,15.90
2023-05-01T02:59:50.782Z,15.90
2023-05-01T03:02:17.265Z,15.90
2023-05-01T03:04:43.824Z,15.90
2023-05-01T03:07:10.407Z,15.90
2023-05-01T03:09:36.890Z,15.90
2023-05-01T03:12:03.371Z,15.90
2023-05-01T03:14:29.850Z,15.90
2023-05-01T03:16:56.365Z,15.90
2023-05-01T03:19:22.876Z,15.90
2023-05-01T03:21:49.350Z,15.90
2023-05-01T03:24:15.894Z,15.90
2023-05-01T03:26:42.373Z,15.90
2023-05-01T03:29:08.867Z,15.90
2023-05-01T03:31:35.381Z,15.90
2023-05-01T03:34:06.730Z,15.90
2023-05-01T03:36:33.198Z,15.90
2023-05-01T03:38:59.697Z,15.90
2023-05-01T03:41:26.173Z,15.90
2023-05-01T03:43:52.649Z,15.90
2023-05-01T03:46:19.165Z,15.90
2023-05-01T03:48:45.703Z,15.90
2023-05-01T03:51:12.169Z,15.90
2023-05-01T03:53:38.672Z,15.90
2023-05-01T03:56:05.154Z,15.90
2023-05-01T03:58:31.637Z,15.90
2023-05-01T04:00:58.116Z,15.90
2023-05-01T04:03:24.690Z,15.80
2023-05-01T04:05:51.219Z,15.90
2023-05-01T04:08:17.695Z,15.90
2023-05-01T04:10:44.180Z,15.80
2023-05-01T04:13:10.637Z,15.80
2023-05-01T04:15:37.099Z,15.90
2023-05-01T04:18:03.642Z,15.90
2023-05-01T04:20:30.161Z,15.90
2023-05-01T04:22:56.636Z,15.90
2023-05-01T04:25:23.106Z,15.80
2023-05-01T04:27:49.585Z,15.80
2023-05-01T04:30:16.082Z,15.80
2023-05-01T04:32:42.580Z,15.80
2023-05-01T04:35:09.140Z,15.80
2023-05-01T04:37:35.674Z,15.80
2023-05-01T04:40:02.195Z,15.90
2023-05-01T04:42:28.678Z,15.80
2023-05-01T04:44:55.161Z,15.80
2023-05-01T04:47:21.626Z,15.80
2023-05-01T04:49:48.100Z,15.90
2023-05-01T04:52:14.561Z,15.80
2023-05-01T04:54:41.063Z,15.80
2023-05-01T04:57:07.537Z,15.90
2023-05-01T04:59:34.030Z,15.80
2023-05-01T05:02:00.553Z,15.80
2023-05-01T05:04:27.091Z,15.80
2023-05-01T05:06:53.617Z,15.80
2023-05-01T05:09:20.375Z,15.80
2023-05-01T05:11:46.907Z,15.90
2023-05-01T05:14:13.405Z,15.90
2023-05-01T05:16:39.896Z,16.00
2023-05-01T05:19:06.391Z,15.90
2023-05-01T05:21:32.866Z,15.90
2023-05-01T05:23:59.363Z,16.00
2023-05-01T05:26:25.835Z,15.90
2023-05-01T05:28:52.323Z,15.90
2023-05-01T05:31:18.810Z,16.00
2023-05-01T05:33:45.273Z,16.00
2023-05-01T05:36:11.733Z,16.00
2023-05-01T05:38:38.192Z,16.00
2023-05-01T05:41:04.680Z,16.00
2023-05-01T05:43:31.149Z,16.00
2023-05-01T05:45:57.667Z,16.00
2023-05-01T05:48:24.173Z,16.00
2023-05-01T05:50:50.674Z,16.10
2023-05-01T05:53:17.139Z,16.00
2023-05-01T05:55:43.614Z,16.00
2023-05-01T05:58:10.067Z,16.00
2023-05-01T06:00:36.551Z,16.00
2023-05-01T06:03:03.157Z,16.00
2023-05-01T06:05:29.724Z,16.00
2023-05-01T06:07:56.235Z,16.00
2023-05-01T06:10:22.737Z,16.00
2023-05-01T06:12:53.425Z,16.00
2023-05-01T06:15:26.836Z,16.00
2023-05-01T06:17:53.420Z,16.00
2023-05-01T06:20:19.926Z,16.00
2023-05-01T06:22:46.399Z,15.90
2023-05-01T06:25:12.889Z,16.00
2023-05-01T06:27:39.374Z,16.00
2023-05-01T06:30:05.855Z,15.90
2023-05-01T06:32:32.358Z,15.90
2023-05-01T06:34:58.899Z,15.90
2023-05-01T06:37:25.365Z,15.90
2023-05-01T06:39:51.846Z,15.90
2023-05-01T06:42:18.327Z,15.90
2023-05-01T06:44:44.796Z,15.90
2023-05-01T06:47:11.368Z,15.90
2023-05-01T06:49:38.033Z,15.90
2023-05-01T06:52:04.508Z,15.90
2023-05-01T06:54:30.996Z,15.90
2023-05-01T06:56:57.506Z,16.00
2023-05-01T06:59:24.015Z,16.00
2023-05-01T07:01:50.570Z,15.90
2023-05-01T07:04:17.102Z,16.00
2023-05-01T07:06:43.606Z,15.90
2023-05-01T07:09:10.124Z,16.00
2023-05-01T07:11:36.605Z,15.90
2023-05-01T07:14:03.069Z,15.90
2023-05-01T07:16:30.933Z,16.00
2023-05-01T07:19:01.047Z,16.00
2023-05-01T07:21:27.537Z,16.00
2023-05-01T07:23:54.013Z,16.00
2023-05-01T07:26:20.478Z,16.00
2023-05-01T07:28:46.940Z,16.00
2023-05-01T07:31:13.432Z,16.00
2023-05-01T07:33:39.897Z,16.00
2023-05-01T07:36:06.418Z,16.00
2023-05-01T07:38:32.883Z,16.00
2023-05-01T07:40:59.362Z,16.00
2023-05-01T07:43:30.975Z,15.90
2023-05-01T07:45:57.571Z,16.00
2023-05-01T07:48:24.104Z,16.00
2023-05-01T07:50:50.576Z,16.00
2023-05-01T07:53:17.055Z,16.00
2023-05-01T07:55:43.523Z,16.00
2023-05-01T07:58:10.025Z,16.00
2023-05-01T08:00:36.538Z,16.00
2023-05-01T08:03:03.122Z,16.00
2023-05-01T08:05:29.663Z,16.00
2023-05-01T08:07:56.128Z,16.00
2023-05-01T08:10:22.741Z,15.90
2023-05-01T08:12:49.230Z,16.00
2023-05-01T08:15:15.726Z,15.90
2023-05-01T08:17:42.248Z,16.00
2023-05-01T08:20:08.803Z,16.00
2023-05-01T08:22:35.278Z,16.00
2023-05-01T08:25:01.791Z,16.00
2023-05-01T08:27:28.460Z,15.90
2023-05-01T08:29:55.152Z,15.90
2023-05-01T08:32:21.765Z,16.00
2023-05-01T08:34:48.283Z,15.90
2023-05-01T08:37:14.744Z,16.00
2023-05-01T08:39:41.246Z,16.00
2023-05-01T08:42:07.736Z,16.00
2023-05-01T08:44:34.197Z,16.00
2023-05-01T08:47:00.718Z,16.00
2023-05-01T08:49:27.254Z,16.00
2023-05-01T08:51:53.740Z,15.90
2023-05-01T08:54:20.199Z,16.00
2023-05-01T08:56:46.689Z,16.00
2023-05-01T08:59:13.174Z,15.90
2023-05-01T09:01:39.717Z,15.90
2023-05-01T09:04:06.286Z,15.90
2023-05-01T09:06:32.861Z,15.90
2023-05-01T09:08:59.366Z,15.80
2023-05-01T09:11:25.854Z,15.90
2023-05-01T09:13:52.321Z,15.90
2023-05-01T09:16:18.810Z,15.90
2023-05-01T09:18:45.306Z,15.80
2023-05-01T09:21:11.778Z,15.80
2023-05-01T09:23:38.251Z,15.80
2023-05-01T09:26:04.737Z,15.90
2023-05-01T09:28:31.213Z,15.90
2023-05-01T09:30:57.692Z,15.80
2023-05-01T09:33:24.234Z,15.90
2023-05-01T09:35:50.913Z,16.00
2023-05-01T09:38:17.388Z,16.00
2023-05-01T09:40:43.811Z,16.20
2023-05-01T09:43:11.785Z,16.20
2023-05-01T09:45:38.404Z,16.20
2023-05-01T09:48:04.968Z,16.20
2023-05-01T09:50:31.460Z,16.10
2023-05-01T09:52:57.928Z,16.20
2023-05-01T09:55:25.656Z,16.20
2023-05-01T09:57:52.465Z,16.20
2023-05-01T10:00:18.976Z,16.20
2023-05-01T10:02:45.556Z,16.20
2023-05-01T10:05:12.135Z,16.20
2023-05-01T10:07:38.610Z,16.20
2023-05-01T10:10:05.272Z,16.20
2023-05-01T10:12:31.787Z,16.20
2023-05-01T10:14:58.280Z,16.20
2023-05-01T10:17:24.826Z,16.20
2023-05-01T10:19:51.422Z,16.20
2023-05-01T10:22:17.954Z,16.30
2023-05-01T10:24:49.175Z,16.30
2023-05-01T10:27:15.674Z,16.30
2023-05-01T10:29:42.171Z,16.30
2023-05-01T10:32:08.667Z,16.30
2023-05-01T10:34:35.168Z,16.20
2023-05-01T10:37:01.647Z,16.30
2023-05-01T10:39:28.152Z,16.30
2023-05-01T10:41:54.629Z,16.30
2023-05-01T10:44:21.109Z,16.30
2023-05-01T10:46:47.922Z,16.30
2023-05-01T10:49:14.446Z,16.30
2023-05-01T10:51:40.948Z,16.30
2023-05-01T10:54:07.433Z,16.30
2023-05-01T10:56:33.940Z,16.30
2023-05-01T10:59:00.411Z,16.40
2023-05-01T11:01:26.905Z,16.30
2023-05-01T11:03:53.386Z,16.30
2023-05-01T11:06:19.925Z,16.30
2023-05-01T11:08:46.536Z,16.30
2023-05-01T11:11:13.020Z,16.40
2023-05-01T11:13:39.507Z,16.40
2023-05-01T11:16:06.062Z,16.40
2023-05-01T11:18:32.601Z,16.30
2023-05-01T11:20:59.067Z,16.40
2023-05-01T11:23:25.578Z,16.40
2023-05-01T11:25:52.097Z,16.30
2023-05-01T11:28:18.569Z,16.30
2023-05-01T11:30:45.024Z,16.40
2023-05-01T11:33:11.612Z,16.40
2023-05-01T11:35:38.234Z,16.40
2023-05-01T11:38:04.696Z,16.40
2023-05-01T11:40:31.160Z,16.40
2023-05-01T11:42:57.608Z,16.40
2023-05-01T11:45:24.083Z,16.30
2023-05-01T11:47:50.566Z,16.30
2023-05-01T11:50:17.101Z,16.30
2023-05-01T11:52:43.608Z,16.30
2023-05-01T11:55:10.081Z,16.40
2023-05-01T11:57:36.569Z,16.40
2023-05-01T12:00:07.300Z,16.40
2023-05-01T12:02:33.887Z,16.30
2023-05-01T12:05:00.723Z,16.30
2023-05-01T12:07:27.519Z,16.30
2023-05-01T12:09:53.993Z,16.40
2023-05-01T12:12:20.492Z,16.40
2023-05-01T12:14:46.963Z,16.40
2023-05-01T12:17:13.544Z,16.40
2023-05-01T12:19:40.038Z,16.40
2023-05-01T12:22:06.512Z,16.40
2023-05-01T12:24:32.990Z,16.40
2023-05-01T12:26:59.468Z,16.40
2023-05-01T12:29:25.934Z,16.40
2023-05-01T12:31:52.476Z,16.30
2023-05-01T12:34:18.949Z,16.40
2023-05-01T12:36:45.421Z,16.40
2023-05-01T12:39:11.913Z,16.40
2023-05-01T12:41:38.405Z,16.40
2023-05-01T12:44:04.884Z,16.40
2023-05-01T12:46:31.401Z,16.40
2023-05-01T12:48:57.911Z,16.40
2023-05-01T12:51:24.380Z,16.40
2023-05-01T12:53:50.860Z,16.40
2023-05-01T12:56:17.330Z,16.40
2023-05-01T12:58:43.805Z,16.40
2023-05-01T13:01:10.317Z,16.40
2023-05-01T13:03:40.077Z,16.40
2023-05-01T13:06:07.405Z,16.40
2023-05-01T13:08:34.016Z,16.40
2023-05-01T13:11:00.500Z,16.40
2023-05-01T13:13:26.973Z,16.40
2023-05-01T13:15:53.453Z,16.40
2023-05-01T13:18:19.931Z,16.40
2023-05-01T13:20:46.411Z,16.40
2023-05-01T13:23:12.902Z,16.40
2023-05-01T13:25:39.421Z,16.40
2023-05-01T13:28:05.918Z,16.40
2023-05-01T13:30:32.386Z,16.40
2023-05-01T13:32:59.027Z,16.30
2023-05-01T13:35:25.613Z,16.40
2023-05-01T13:37:52.121Z,16.40
2023-05-01T13:40:18.593Z,16.40
2023-05-01T13:42:45.082Z,16.40
2023-05-01T13:45:11.554Z,16.40
2023-05-01T13:47:40.144Z,16.40
2023-05-01T13:50:06.847Z,16.40
2023-05-01T13:52:33.317Z,16.50
2023-05-01T13:55:00.456Z,16.40
2023-05-01T13:57:27.604Z,16.40
2023-05-01T13:59:54.066Z,16.40
2023-05-01T14:02:20.610Z,16.40
2023-05-01T14:04:47.152Z,16.40
2023-05-01T14:07:13.623Z,16.40
2023-05-01T14:09:40.079Z,16.40
2023-05-01T14:12:06.554Z,16.40
2023-05-01T14:14:33.036Z,16.40
2023-05-01T14:16:59.576Z,16.40
2023-05-01T14:19:26.105Z,16.50
2023-05-01T14:21:52.572Z,16.50
2023-05-01T14:24:19.057Z,16.50
2023-05-01T14:26:45.558Z,16.50
2023-05-01T14:29:12.073Z,16.50
2023-05-01T14:31:38.847Z,16.50
2023-05-01T14:34:05.410Z,16.50
2023-05-01T14:36:31.886Z,16.50
2023-05-01T14:38:58.360Z,16.50
2023-05-01T14:41:24.828Z,16.50
2023-05-01T14:43:51.289Z,16.50
2023-05-01T14:46:17.859Z,16.50
2023-05-01T14:48:44.384Z,16.50
2023-05-01T14:51:10.850Z,16.50
2023-05-01T14:53:37.341Z,16.50
2023-05-01T14:56:03.810Z,16.50
2023-05-01T14:58:30.317Z,16.50
2023-05-01T15:00:56.801Z,16.50
2023-05-01T15:03:23.453Z,16.50
2023-05-01T15:05:50.003Z,16.40
2023-05-01T15:08:16.496Z,16.50
2023-05-01T15:10:42.960Z,16.40
2023-05-01T15:13:09.435Z,16.60
2023-05-01T15:15:35.908Z,16.50
2023-05-01T15:18:02.431Z,16.50
2023-05-01T15:20:29.006Z,16.50
2023-05-01T15:22:55.477Z,16.50
2023-05-01T15:25:21.954Z,16.50
2023-05-01T15:27:48.472Z,16.50
2023-05-01T15:30:14.947Z,16.50
2023-05-01T15:32:41.552Z,16.50
2023-05-01T15:35:08.141Z,16.50
2023-05-01T15:37:34.627Z,16.50
2023-05-01T15:40:01.152Z,16.50
2023-05-01T15:42:27.671Z,16.50
2023-05-01T15:44:54.153Z,16.50
2023-05-01T15:47:20.637Z,16.50
2023-05-01T15:49:47.101Z,16.50
2023-05-01T15:52:13.594Z,16.50
2023-05-01T15:54:43.360Z,16.50
2023-05-01T15:57:09.822Z,16.50
2023-05-01T15:59:36.295Z,16.50
2023-05-01T16:02:02.773Z,16.50
2023-05-01T16:04:29.274Z,16.50
2023-05-01T16:06:55.792Z,16.50
2023-05-01T16:09:22.259Z,16.50
2023-05-01T16:11:48.735Z,16.50
2023-05-01T16:14:15.243Z,16.50
2023-05-01T16:16:41.759Z,16.50
2023-05-01T16:19:08.276Z,16.50
2023-05-01T16:21:34.769Z,16.50
2023-05-01T16:24:01.438Z,16.60
2023-05-01T16:26:28.300Z,16.50
2023-05-01T16:28:54.945Z,16.50
2023-05-01T16:31:27.559Z,16.50
2023-05-01T16:33:54.630Z,16.50
2023-05-01T16:36:21.155Z,16.50
2023-05-01T16:38:47.654Z,16.50
2023-05-01T16:41:14.154Z,16.50
2023-05-01T16:43:40.661Z,16.50
2023-05-01T16:46:07.170Z,16.50
2023-05-01T16:48:33.698Z,16.50
2023-05-01T16:51:00.171Z,16.50
2023-05-01T16:53:26.649Z,16.50
2023-05-01T16:55:53.141Z,16.50
2023-05-01T16:58:19.632Z,16.50
2023-05-01T17:00:46.118Z,16.50
2023-05-01T17:03:12.613Z,16.50
2023-05-01T17:05:43.422Z,16.50
2023-05-01T17:08:09.924Z,16.50
2023-05-01T17:10:36.397Z,16.40
2023-05-01T17:13:02.866Z,16.50
2023-05-01T17:15:29.347Z,16.50
2023-05-01T17:17:55.924Z,16.50
2023-05-01T17:20:22.456Z,16.50
2023-05-01T17:22:48.931Z,16.50
2023-05-01T17:25:15.397Z,16.50
2023-05-01T17:27:41.878Z,16.50
2023-05-01T17:30:08.356Z,16.50
2023-05-01T17:32:37.449Z,16.50
2023-05-01T17:35:07.440Z,16.50
2023-05-01T17:37:33.913Z,16.50
2023-05-01T17:40:00.645Z,16.50
2023-05-01T17:42:27.417Z,16.50
2023-05-01T17:44:53.902Z,16.50
2023-05-01T17:47:20.388Z,16.50
2023-05-01T17:49:46.864Z,16.50
2023-05-01T17:52:13.378Z,16.50
2023-05-01T17:54:39.862Z,16.50
2023-05-01T17:57:06.348Z,16.50
2023-05-01T17:59:32.808Z,16.50
2023-05-01T18:01:59.422Z,16.50
2023-05-01T18:04:26.050Z,16.50
2023-05-01T18:06:52.625Z,16.50
2023-05-01T18:09:19.182Z,16.50
2023-05-01T18:11:45.658Z,16.50
2023-05-01T18:14:12.156Z,16.50
2023-05-01T18:16:38.663Z,16.50
2023-05-01T18:19:05.173Z,16.60
2023-05-01T18:21:31.659Z,16.50
2023-05-01T18:23:58.150Z,16.50
2023-05-01T18:26:25.067Z,16.50
2023-05-01T18:28:51.539Z,16.50
2023-05-01T18:31:18.082Z,16.50
2023-05-01T18:33:44.571Z,16.50
2023-05-01T18:36:11.048Z,16.50
2023-05-01T18:38:37.507Z,16.60
2023-05-01T18:41:03.974Z,16.50
2023-05-01T18:43:30.434Z,16.50
2023-05-01T18:45:57.012Z,16.50
2023-05-01T18:48:23.519Z,16.50
2023-05-01T18:51:01.231Z,16.50
2023-05-01T18:53:33.473Z,16.50
2023-05-01T18:55:59.937Z,16.50
2023-05-01T18:58:26.408Z,16.50
2023-05-01T19:00:52.892Z,16.50
2023-05-01T19:03:19.384Z,16.50
2023-05-01T19:05:45.975Z,16.50
2023-05-01T19:08:12.536Z,16.50
2023-05-01T19:10:39.078Z,16.50
2023-05-01T19:13:05.543Z,16.50
2023-05-01T19:15:32.018Z,16.50
2023-05-01T19:17:58.521Z,16.50
2023-05-01T19:20:25.012Z,16.50
2023-05-01T19:22:51.476Z,16.50
2023-05-01T19:25:17.950Z,16.50
2023-05-01T19:27:44.435Z,16.50
2023-05-01T19:30:10.935Z,16.40
2023-05-01T19:32:37.441Z,16.50
2023-05-01T19:35:03.949Z,16.40
2023-05-01T19:37:30.423Z,16.40
2023-05-01T19:39:57.045Z,16.40
2023-05-01T19:42:23.640Z,16.40
2023-05-01T19:44:50.126Z,16.40
2023-05-01T19:47:16.600Z,16.40
2023-05-01T19:49:43.113Z,16.40
2023-05-01T19:52:09.582Z,16.40
2023-05-01T19:54:36.095Z,16.40
2023-05-01T19:57:02.616Z,16.40
2023-05-01T19:59:29.097Z,16.40
2023-05-01T20:01:55.908Z,16.40
2023-05-01T20:04:23.292Z,16.40
2023-05-01T20:06:49.813Z,16.40
2023-05-01T20:09:16.305Z,16.40
2023-05-01T20:11:42.777Z,16.30
2023-05-01T20:14:09.240Z,16.40
2023-05-01T20:16:35.798Z,16.40
2023-05-01T20:19:02.322Z,16.40
2023-05-01T20:21:28.799Z,16.40
2023-05-01T20:23:55.258Z,16.40
2023-05-01T20:26:21.769Z,16.40
2023-05-01T20:28:48.254Z,16.40
2023-05-01T20:31:14.792Z,16.40
2023-05-01T20:33:41.369Z,16.40
2023-05-01T20:36:07.838Z,16.40
2023-05-01T20:38:34.314Z,16.40
2023-05-01T20:41:00.787Z,16.40
2023-05-01T20:43:27.264Z,16.40
2023-05-01T20:45:53.780Z,16.40
2023-05-01T20:48:20.264Z,16.40
2023-05-01T20:50:46.742Z,16.30
2023-05-01T20:53:13.252Z,16.40
2023-05-01T20:55:39.731Z,16.40
2023-05-01T20:58:06.210Z,16.40
2023-05-01T21:00:32.711Z,16.40
2023-05-01T21:02:59.285Z,16.40
2023-05-01T21:05:25.821Z,16.40
2023-05-01T21:07:52.297Z,16.40
2023-05-01T21:10:18.792Z,16.40
2023-05-01T21:12:45.255Z,16.40
2023-05-01T21:15:13.625Z,16.30
2023-05-01T21:17:40.162Z,16.40
2023-05-01T21:20:06.664Z,16.40
2023-05-01T21:22:33.145Z,16.40
2023-05-01T21:24:59.646Z,16.40
2023-05-01T21:27:26.129Z,16.40
2023-05-01T21:29:52.638Z,16.40
2023-05-01T21:32:19.106Z,16.40
2023-05-01T21:34:45.571Z,16.40
2023-05-01T21:37:12.047Z,16.40
2023-05-01T21:39:38.558Z,16.40
2023-05-01T21:42:05.074Z,16.40
2023-05-01T21:44:31.528Z,16.30
2023-05-01T21:46:58.039Z,16.30
2023-05-01T21:49:24.580Z,16.30
2023-05-01T21:51:51.054Z,16.40
2023-05-01T21:54:18.073Z,16.30
2023-05-01T21:56:45.720Z,16.30
2023-05-01T21:59:12.192Z,16.30
2023-05-01T22:01:38.743Z,16.40
2023-05-01T22:04:05.336Z,16.40
2023-05-01T22:06:31.859Z,16.40
2023-05-01T22:08:58.358Z,16.40
2023-05-01T22:11:24.844Z,16.30
2023-05-01T22:13:51.334Z,16.40
2023-05-01T22:16:19.741Z,16.40
2023-05-01T22:18:47.147Z,16.40
2023-05-01T22:21:15.178Z,16.40
2023-05-01T22:23:41.633Z,16.30
2023-05-01T22:26:08.104Z,16.30
2023-05-01T22:28:34.618Z,16.40
2023-05-01T22:31:01.097Z,16.30
2023-05-01T22:33:27.582Z,16.50
2023-05-01T22:35:54.066Z,16.40
2023-05-01T22:38:20.542Z,16.60
2023-05-01T22:40:47.036Z,16.50
2023-05-01T22:43:13.496Z,16.50
2023-05-01T22:45:39.956Z,16.40
2023-05-01T22:48:06.493Z,16.50
2023-05-01T22:50:33.019Z,16.60
2023-05-01T22:52:59.487Z,16.50
2023-05-01T22:55:26.012Z,16.50
2023-05-01T22:57:52.475Z,16.50
2023-05-01T23:00:18.967Z,16.50
2023-05-01T23:02:45.656Z,16.50
2023-05-01T23:05:12.185Z,16.50
2023-05-01T23:07:38.681Z,16.50
2023-05-01T23:10:05.153Z,16.50
2023-05-01T23:12:31.594Z,16.50
2023-05-01T23:14:58.059Z,16.50
2023-05-01T23:17:24.574Z,16.50
2023-05-01T23:19:51.082Z,16.50
2023-05-01T23:22:17.550Z,16.50
2023-05-01T23:24:43.993Z,16.50
2023-05-01T23:27:10.464Z,16.40
2023-05-01T23:29:36.928Z,16.50
2023-05-01T23:32:03.444Z,16.50
2023-05-01T23:34:29.984Z,16.50
2023-05-01T23:36:56.470Z,16.40
2023-05-01T23:39:22.934Z,16.50
2023-05-01T23:41:49.404Z,16.50
2023-05-01T23:44:15.874Z,16.40
2023-05-01T23:46:42.466Z,16.50
2023-05-01T23:49:08.947Z,16.50
2023-05-01T23:51:37.744Z,16.50
2023-05-01T23:54:04.260Z,16.50
2023-05-01T23:56:30.751Z,16.50
2023-05-01T23:59:01.899Z,16.40
